createdAt,value
2017-11-07T00:00:02.963Z,9.97
2017-11-07T00:02:31.226Z,10.50
2017-11-07T00:05:00.030Z,10.60
2017-11-07T00:07:28.286Z,11.03
2017-11-07T00:09:56.788Z,10.80
2017-11-07T00:12:25.091Z,12.50
2017-11-07T00:14:52.588Z,14.30
2017-11-07T00:17:20.082Z,14.63
2017-11-07T00:19:47.590Z,15.00
2017-11-07T00:22:15.102Z,12.43
2017-11-07T00:24:42.597Z,11.93
2017-11-07T00:27:10.140Z,11.43
2017-11-07T00:29:38.384Z,16.00
2017-11-07T00:32:05.894Z,16.50
2017-11-07T00:34:33.439Z,17.67
2017-11-07T00:37:00.945Z,14.93
2017-11-07T00:39:29.208Z,14.33
2017-11-07T00:41:57.498Z,16.60
2017-11-07T00:44:25.766Z,19.43
2017-11-07T00:46:54.750Z,15.50
2017-11-07T00:49:23.072Z,15.17
2017-11-07T00:51:50.584Z,16.57
2017-11-07T00:54:18.638Z,15.93
2017-11-07T00:56:46.188Z,15.67
2017-11-07T00:59:13.748Z,12.30
2017-11-07T01:01:41.262Z,13.10
2017-11-07T01:04:08.823Z,14.20
2017-11-07T01:06:36.318Z,13.13
2017-11-07T01:09:03.858Z,13.13
2017-11-07T01:11:31.382Z,13.40
2017-11-07T01:13:58.882Z,11.20
2017-11-07T01:16:26.392Z,11.93
2017-11-07T01:18:53.928Z,12.27
2017-11-07T01:21:22.202Z,12.03
2017-11-07T01:23:50.462Z,11.40
2017-11-07T01:26:18.762Z,10.23
2017-11-07T01:28:47.018Z,10.43
2017-11-07T01:31:15.839Z,10.00
2017-11-07T01:33:43.405Z,8.80
2017-11-07T01:36:10.907Z,9.30
2017-11-07T01:38:38.404Z,9.97
2017-11-07T01:41:05.935Z,10.93
2017-11-07T01:43:33.458Z,9.43
2017-11-07T01:46:00.956Z,10.33
2017-11-07T01:48:29.851Z,10.53
2017-11-07T01:50:58.149Z,11.53
2017-11-07T01:53:25.652Z,12.07
2017-11-07T01:58:27.119Z,10.43
2017-11-07T02:00:54.647Z,10.27
2017-11-07T02:03:22.573Z,8.77
2017-11-07T02:05:51.058Z,9.53
2017-11-07T02:08:19.940Z,9.07
2017-11-07T02:10:48.202Z,9.80
2017-11-07T02:13:16.478Z,8.53
2017-11-07T02:15:44.762Z,8.67
2017-11-07T02:18:13.016Z,9.10
2017-11-07T02:20:41.274Z,8.23
2017-11-07T02:23:09.551Z,8.17
2017-11-07T02:25:37.050Z,8.27
2017-11-07T02:28:05.318Z,8.03
2017-11-07T02:30:34.347Z,8.43
2017-11-07T02:33:01.877Z,8.33
2017-11-07T02:35:30.142Z,8.23
2017-11-07T02:37:58.423Z,8.13
2017-11-07T02:40:26.705Z,8.03
2017-11-07T02:42:54.234Z,7.73
2017-11-07T02:45:22.374Z,7.77
2017-11-07T02:47:50.638Z,7.83
2017-11-07T02:50:18.200Z,8.47
2017-11-07T02:52:45.734Z,8.00
2017-11-07T02:55:13.256Z,8.27
2017-11-07T02:57:41.527Z,7.80
2017-11-07T03:00:10.388Z,8.27
2017-11-07T03:02:37.922Z,8.33
2017-11-07T03:05:05.427Z,9.30
2017-11-07T03:07:32.952Z,8.30
2017-11-07T03:10:00.446Z,8.63
2017-11-07T03:12:28.747Z,9.57
2017-11-07T03:14:57.028Z,9.10
2017-11-07T03:17:24.536Z,8.07
2017-11-07T03:19:52.026Z,8.93
2017-11-07T03:22:20.306Z,8.77
2017-11-07T03:24:48.562Z,9.13
2017-11-07T03:27:16.060Z,8.63
2017-11-07T03:29:43.586Z,9.03
2017-11-07T03:32:11.846Z,9.63
2017-11-07T03:34:39.334Z,9.87
2017-11-07T03:37:07.497Z,9.13
2017-11-07T03:39:35.620Z,9.67
2017-11-07T03:42:03.172Z,8.87
2017-11-07T03:44:30.788Z,8.50
2017-11-07T03:46:59.645Z,10.00
2017-11-07T03:49:27.158Z,8.83
2017-11-07T03:51:54.674Z,9.20
2017-11-07T03:54:22.930Z,7.70
2017-11-07T03:56:50.424Z,8.30
2017-11-07T03:59:18.712Z,9.90
2017-11-07T04:01:46.960Z,9.17
2017-11-07T04:04:15.309Z,10.50
2017-11-07T04:06:42.838Z,8.37
2017-11-07T04:09:10.336Z,11.40
2017-11-07T04:11:38.749Z,8.57
2017-11-07T04:14:06.263Z,10.87
2017-11-07T04:16:33.764Z,10.70
2017-11-07T04:19:01.255Z,11.90
2017-11-07T04:21:28.770Z,11.50
2017-11-07T04:23:57.022Z,12.10
2017-11-07T04:26:24.513Z,11.10
2017-11-07T04:28:52.025Z,10.90
2017-11-07T04:31:20.450Z,9.30
2017-11-07T04:33:47.965Z,11.13
2017-11-07T04:36:15.488Z,8.90
2017-11-07T04:38:42.986Z,9.30
2017-11-07T04:41:11.259Z,9.53
2017-11-07T04:43:38.784Z,9.97
2017-11-07T04:46:06.283Z,10.87
2017-11-07T04:48:34.557Z,10.17
2017-11-07T04:51:03.561Z,10.10
2017-11-07T04:53:32.517Z,10.43
2017-11-07T04:56:00.008Z,10.43
2017-11-07T04:58:27.525Z,9.57
2017-11-07T05:00:55.117Z,8.90
2017-11-07T05:03:23.376Z,8.07
2017-11-07T05:05:52.396Z,9.87
2017-11-07T05:08:19.921Z,9.63
2017-11-07T05:10:47.414Z,9.10
2017-11-07T05:13:14.943Z,10.27
2017-11-07T05:15:43.221Z,9.03
2017-11-07T05:18:11.528Z,10.60
2017-11-07T05:20:39.033Z,8.97
2017-11-07T05:23:06.533Z,9.53
2017-11-07T05:25:34.019Z,9.17
2017-11-07T05:28:01.747Z,11.50
2017-11-07T05:30:29.241Z,11.33
2017-11-07T05:32:56.725Z,9.47
2017-11-07T05:35:24.261Z,11.13
2017-11-07T05:37:51.759Z,10.23
2017-11-07T05:40:20.019Z,10.13
2017-11-07T05:42:47.552Z,10.67
2017-11-07T05:45:15.041Z,9.60
2017-11-07T05:47:43.318Z,11.67
2017-11-07T05:50:12.209Z,11.10
2017-11-07T05:52:40.490Z,11.50
2017-11-07T05:55:08.764Z,10.00
2017-11-07T05:57:37.041Z,10.30
2017-11-07T06:00:05.353Z,10.10
2017-11-07T06:02:34.340Z,9.83
2017-11-07T06:05:01.897Z,10.10
2017-11-07T06:07:29.650Z,10.93
2017-11-07T06:09:57.889Z,9.90
2017-11-07T06:12:26.171Z,8.70
2017-11-07T06:14:54.429Z,10.47
2017-11-07T06:17:21.947Z,9.53
2017-11-07T06:19:49.478Z,9.47
2017-11-07T06:22:17.003Z,10.10
2017-11-07T06:24:44.540Z,10.70
2017-11-07T06:27:12.047Z,10.17
2017-11-07T06:29:40.304Z,11.43
2017-11-07T06:32:08.568Z,11.73
2017-11-07T06:34:36.080Z,12.13
2017-11-07T06:37:03.573Z,14.00
2017-11-07T06:39:31.062Z,14.17
2017-11-07T06:41:59.340Z,13.93
2017-11-07T06:44:26.849Z,14.40
2017-11-07T06:46:54.341Z,13.80
2017-11-07T06:49:22.736Z,13.77
2017-11-07T06:51:50.284Z,13.93
2017-11-07T06:54:18.566Z,14.37
2017-11-07T06:56:46.080Z,14.23
2017-11-07T06:59:13.574Z,14.83
2017-11-07T07:01:41.864Z,14.97
2017-11-07T07:04:09.392Z,13.13
2017-11-07T07:06:37.664Z,15.03
2017-11-07T07:09:05.945Z,15.77
2017-11-07T07:11:34.229Z,15.23
2017-11-07T07:14:02.510Z,14.40
2017-11-07T07:16:30.005Z,15.33
2017-11-07T07:18:57.521Z,14.67
2017-11-07T07:21:25.788Z,15.90
2017-11-07T07:23:54.978Z,14.33
2017-11-07T07:26:22.527Z,15.90
2017-11-07T07:28:51.407Z,13.40
2017-11-07T07:31:18.894Z,15.17
2017-11-07T07:33:47.176Z,17.07
2017-11-07T07:36:15.133Z,16.97
2017-11-07T07:38:43.410Z,14.30
2017-11-07T07:41:11.880Z,13.23
2017-11-07T07:43:40.138Z,13.87
2017-11-07T07:46:08.428Z,13.77
2017-11-07T07:48:36.709Z,15.23
2017-11-07T07:51:04.991Z,15.17
2017-11-07T07:53:32.530Z,13.77
2017-11-07T07:56:01.687Z,15.37
2017-11-07T07:58:29.185Z,15.43
2017-11-07T08:00:57.454Z,14.23
2017-11-07T08:03:25.762Z,17.13
2017-11-07T08:05:54.145Z,15.03
2017-11-07T08:08:21.642Z,16.53
2017-11-07T08:10:49.161Z,17.40
2017-11-07T08:13:16.673Z,15.50
2017-11-07T08:15:44.982Z,14.63
2017-11-07T08:18:13.355Z,15.47
2017-11-07T08:20:40.861Z,14.57
2017-11-07T08:23:08.361Z,13.37
2017-11-07T08:25:35.884Z,15.63
2017-11-07T08:28:03.385Z,15.10
2017-11-07T08:30:30.884Z,15.47
2017-11-07T08:32:58.394Z,15.03
2017-11-07T08:35:27.000Z,14.33
2017-11-07T08:37:54.492Z,13.63
2017-11-07T08:40:23.376Z,15.17
2017-11-07T08:42:50.867Z,15.53
2017-11-07T08:45:20.838Z,17.20
2017-11-07T08:47:48.377Z,15.53
2017-11-07T08:50:17.033Z,17.63
2017-11-07T08:52:45.350Z,18.43
2017-11-07T08:55:14.541Z,17.03
2017-11-07T08:57:42.042Z,15.67
2017-11-07T09:00:10.328Z,17.67
2017-11-07T09:02:38.609Z,15.27
2017-11-07T09:05:06.879Z,15.37
2017-11-07T09:07:35.716Z,13.47
2017-11-07T09:10:03.296Z,13.37
2017-11-07T09:12:30.798Z,15.13
2017-11-07T09:14:58.314Z,14.27
2017-11-07T09:17:25.834Z,15.13
2017-11-07T09:19:53.348Z,16.30
2017-11-07T09:22:21.710Z,16.90
2017-11-07T09:24:50.024Z,19.57
2017-11-07T09:27:17.524Z,19.30
2017-11-07T09:29:45.042Z,19.90
2017-11-07T09:32:12.583Z,20.60
2017-11-07T09:34:40.897Z,19.67
2017-11-07T09:37:08.394Z,20.17
2017-11-07T09:39:36.680Z,19.97
2017-11-07T09:42:04.967Z,18.43
2017-11-07T09:44:33.233Z,18.93
2017-11-07T09:47:02.223Z,17.97
2017-11-07T09:49:30.477Z,17.70
2017-11-07T09:51:57.962Z,17.37
2017-11-07T09:54:25.491Z,17.93
2017-11-07T09:56:53.772Z,17.53
2017-11-07T09:59:21.271Z,17.03
2017-11-07T10:01:48.795Z,16.60
2017-11-07T10:04:17.090Z,16.63
2017-11-07T10:06:45.470Z,14.73
2017-11-07T10:09:13.787Z,14.57
2017-11-07T10:11:41.302Z,14.47
2017-11-07T10:14:08.981Z,14.43
2017-11-07T10:16:36.534Z,14.10
2017-11-07T10:19:04.110Z,14.00
2017-11-07T10:21:32.452Z,13.60
2017-11-07T10:23:59.987Z,13.27
2017-11-07T10:26:28.272Z,12.93
2017-11-07T10:28:57.172Z,13.47
2017-11-07T10:31:24.716Z,13.23
2017-11-07T10:33:53.812Z,13.00
2017-11-07T10:36:22.089Z,12.63
2017-11-07T10:38:50.412Z,12.97
2017-11-07T10:41:17.945Z,12.30
2017-11-07T10:43:45.452Z,13.90
2017-11-07T10:46:13.699Z,11.93
2017-11-07T10:48:41.218Z,11.97
2017-11-07T10:51:08.740Z,11.87
2017-11-07T10:53:36.298Z,11.93
2017-11-07T10:56:03.818Z,11.50
2017-11-07T10:58:31.322Z,11.57
2017-11-07T11:00:59.617Z,11.83
2017-11-07T11:03:28.729Z,11.43
2017-11-07T11:05:56.232Z,11.93
2017-11-07T11:08:23.792Z,11.47
2017-11-07T11:10:51.308Z,12.10
2017-11-07T11:13:18.847Z,12.00
2017-11-07T11:15:47.351Z,11.10
2017-11-07T11:18:15.674Z,11.00
2017-11-07T11:20:43.196Z,11.43
2017-11-07T11:23:10.721Z,10.20
2017-11-07T11:25:38.218Z,10.97
2017-11-07T11:28:06.664Z,10.83
2017-11-07T11:30:34.210Z,11.17
2017-11-07T11:33:02.492Z,10.30
2017-11-07T11:35:30.004Z,9.97
2017-11-07T11:37:58.647Z,9.80
2017-11-07T11:40:26.180Z,9.90
2017-11-07T11:42:54.472Z,10.23
2017-11-07T11:45:22.002Z,10.40
2017-11-07T11:47:50.486Z,11.20
2017-11-07T11:50:19.535Z,10.43
2017-11-07T11:52:47.068Z,10.37
2017-11-07T11:55:14.602Z,10.10
2017-11-07T11:57:42.860Z,10.93
2017-11-07T12:00:11.174Z,10.43
2017-11-07T12:02:38.697Z,10.47
2017-11-07T12:05:07.034Z,10.57
2017-11-07T12:07:34.575Z,10.83
2017-11-07T12:10:02.084Z,13.40
2017-11-07T12:12:30.382Z,10.60
2017-11-07T12:14:57.908Z,13.23
2017-11-07T12:17:25.406Z,14.40
2017-11-07T12:19:53.874Z,9.87
2017-11-07T12:22:21.410Z,10.50
2017-11-07T12:24:49.678Z,11.23
2017-11-07T12:27:18.321Z,11.53
2017-11-07T12:29:45.858Z,11.70
2017-11-07T12:32:13.349Z,19.00
2017-11-07T12:34:40.850Z,11.67
2017-11-07T12:37:09.162Z,20.27
2017-11-07T12:39:36.706Z,13.10
2017-11-07T12:42:05.404Z,13.47
2017-11-07T12:44:33.680Z,11.90
2017-11-07T12:47:01.968Z,12.70
2017-11-07T12:49:31.477Z,11.93
2017-11-07T12:52:01.464Z,11.73
2017-11-07T12:54:32.952Z,11.83
2017-11-07T12:57:01.828Z,10.60
2017-11-07T12:59:30.695Z,11.00
2017-11-07T13:01:59.553Z,11.47
2017-11-07T13:04:28.841Z,11.40
2017-11-07T13:06:57.693Z,12.60
2017-11-07T13:09:26.589Z,12.57
2017-11-07T13:11:55.462Z,13.63
2017-11-07T13:14:24.297Z,12.80
2017-11-07T13:16:53.135Z,13.30
2017-11-07T13:19:21.995Z,13.63
2017-11-07T13:21:50.860Z,12.73
2017-11-07T13:24:19.705Z,13.13
2017-11-07T13:26:48.639Z,12.90
2017-11-07T13:29:17.491Z,12.93
2017-11-07T13:31:46.369Z,12.97
2017-11-07T13:34:15.233Z,11.37
2017-11-07T13:36:44.109Z,10.67
2017-11-07T13:39:12.954Z,9.73
2017-11-07T13:41:41.832Z,10.43
2017-11-07T13:44:10.675Z,10.93
2017-11-07T13:46:39.519Z,11.50
2017-11-07T13:49:08.382Z,11.97
2017-11-07T13:51:37.220Z,11.73
2017-11-07T13:54:06.106Z,12.70
2017-11-07T13:56:34.977Z,12.13
2017-11-07T13:59:03.813Z,12.43
2017-11-07T14:01:33.573Z,12.93
2017-11-07T14:04:03.775Z,12.17
2017-11-07T14:06:32.628Z,13.13
2017-11-07T14:09:01.473Z,11.90
2017-11-07T14:11:30.365Z,12.10
2017-11-07T14:13:59.191Z,11.80
2017-11-07T14:16:28.041Z,12.73
2017-11-07T14:18:56.911Z,11.67
2017-11-07T14:21:25.825Z,11.60
2017-11-07T14:23:54.668Z,10.83
2017-11-07T14:26:23.545Z,11.03
2017-11-07T14:28:52.401Z,10.03
2017-11-07T14:31:21.241Z,9.37
2017-11-07T14:33:50.121Z,9.13
2017-11-07T14:36:18.977Z,11.70
2017-11-07T14:38:47.823Z,11.47
2017-11-07T14:41:16.701Z,11.53
2017-11-07T14:43:45.556Z,11.77
2017-11-07T14:46:14.390Z,11.60
2017-11-07T14:48:43.258Z,11.83
2017-11-07T14:51:12.123Z,12.70
2017-11-07T14:53:40.981Z,11.90
2017-11-07T14:56:09.860Z,9.87
2017-11-07T14:58:38.823Z,12.83
2017-11-07T15:01:07.674Z,10.77
2017-11-07T15:03:36.549Z,12.10
2017-11-07T15:06:05.418Z,12.90
2017-11-07T15:08:34.267Z,12.30
2017-11-07T15:11:03.203Z,12.80
2017-11-07T15:13:32.238Z,12.97
2017-11-07T15:16:01.089Z,11.30
2017-11-07T15:18:30.385Z,12.63
2017-11-07T15:20:59.395Z,13.40
2017-11-07T15:23:28.261Z,14.27
2017-11-07T15:25:57.155Z,13.87
2017-11-07T15:28:26.531Z,14.53
2017-11-07T15:30:55.718Z,14.70
2017-11-07T15:33:24.597Z,17.50
2017-11-07T15:35:53.476Z,15.87
2017-11-07T15:38:22.331Z,17.57
2017-11-07T15:40:51.213Z,18.70
2017-11-07T15:43:20.094Z,19.67
2017-11-07T15:45:49.301Z,21.13
2017-11-07T15:48:18.349Z,23.67
2017-11-07T15:50:47.224Z,22.57
2017-11-07T15:53:16.089Z,21.43
2017-11-07T15:55:44.970Z,21.77
2017-11-07T15:58:13.870Z,21.13
2017-11-07T16:00:42.717Z,21.13
2017-11-07T16:03:11.607Z,20.57
2017-11-07T16:05:40.546Z,19.57
2017-11-07T16:08:09.435Z,20.63
2017-11-07T16:10:38.354Z,20.07
2017-11-07T16:13:07.231Z,18.47
2017-11-07T16:15:36.180Z,19.07
2017-11-07T16:18:05.065Z,19.10
2017-11-07T16:20:33.931Z,16.53
2017-11-07T16:23:02.823Z,16.63
2017-11-07T16:25:31.734Z,16.63
2017-11-07T16:28:00.593Z,14.47
2017-11-07T16:30:29.451Z,17.90
2017-11-07T16:32:58.328Z,19.10
2017-11-07T16:35:27.209Z,18.17
2017-11-07T16:37:56.057Z,15.67
2017-11-07T16:40:25.413Z,15.87
2017-11-07T16:42:54.284Z,13.57
2017-11-07T16:45:23.172Z,15.17
2017-11-07T16:47:52.053Z,15.87
2017-11-07T16:50:20.910Z,17.30
2017-11-07T16:52:49.765Z,16.13
2017-11-07T16:55:18.656Z,17.33
2017-11-07T16:57:47.559Z,16.50
2017-11-07T17:00:16.393Z,16.73
2017-11-07T17:02:45.281Z,15.50
2017-11-07T17:05:14.207Z,16.73
2017-11-07T17:07:43.067Z,18.07
2017-11-07T17:10:12.674Z,15.13
2017-11-07T17:12:41.596Z,16.07
2017-11-07T17:15:10.965Z,17.13
2017-11-07T17:17:39.851Z,17.00
2017-11-07T17:20:09.551Z,17.17
2017-11-07T17:22:38.528Z,17.07
2017-11-07T17:25:07.433Z,17.77
2017-11-07T17:27:36.325Z,18.53
2017-11-07T17:30:05.192Z,17.87
2017-11-07T17:32:34.461Z,18.57
2017-11-07T17:35:03.402Z,14.17
2017-11-07T17:37:32.295Z,17.97
2017-11-07T17:40:01.161Z,19.33
2017-11-07T17:42:30.006Z,20.10
2017-11-07T17:44:58.873Z,20.93
2017-11-07T17:47:28.067Z,21.80
2017-11-07T17:49:56.925Z,20.03
2017-11-07T17:52:25.904Z,19.53
2017-11-07T17:54:54.833Z,17.23
2017-11-07T17:57:23.695Z,15.80
2017-11-07T17:59:52.593Z,20.23
2017-11-07T18:02:21.493Z,20.07
2017-11-07T18:04:50.348Z,16.37
2017-11-07T18:07:19.190Z,19.57
2017-11-07T18:09:48.058Z,19.63
2017-11-07T18:12:17.795Z,19.43
2017-11-07T18:14:46.675Z,18.47
2017-11-07T18:17:15.579Z,19.03
2017-11-07T18:19:44.445Z,16.27
2017-11-07T18:22:13.302Z,16.77
2017-11-07T18:24:42.571Z,13.97
2017-11-07T18:27:11.436Z,18.10
2017-11-07T18:29:41.219Z,18.23
2017-11-07T18:32:10.836Z,18.73
2017-11-07T18:34:40.300Z,18.27
2017-11-07T18:37:09.159Z,20.43
2017-11-07T18:39:38.854Z,19.97
2017-11-07T18:42:07.778Z,18.80
2017-11-07T18:44:36.645Z,20.83
2017-11-07T18:47:06.327Z,20.77
2017-11-07T18:49:35.195Z,22.23
2017-11-07T18:52:04.068Z,22.47
2017-11-07T18:54:32.950Z,23.23
2017-11-07T18:57:01.833Z,22.87
2017-11-07T18:59:30.690Z,23.17
2017-11-07T19:01:59.575Z,23.33
2017-11-07T19:04:28.426Z,23.13
2017-11-07T19:06:57.319Z,22.40
2017-11-07T19:09:26.252Z,24.03
2017-11-07T19:11:55.130Z,23.73
2017-11-07T19:14:24.009Z,22.40
2017-11-07T19:16:52.892Z,23.77
2017-11-07T19:19:21.741Z,24.53
2017-11-07T19:21:50.621Z,25.40
2017-11-07T19:24:19.512Z,24.40
2017-11-07T19:26:48.376Z,25.37
2017-11-07T19:29:17.283Z,24.50
2017-11-07T19:31:46.153Z,22.63
2017-11-07T19:34:15.000Z,20.53
2017-11-07T19:36:43.863Z,19.67
2017-11-07T19:39:12.748Z,17.57
2017-11-07T19:41:41.660Z,22.17
2017-11-07T19:44:10.499Z,21.23
2017-11-07T19:46:39.389Z,21.17
2017-11-07T19:49:08.272Z,20.97
2017-11-07T19:51:37.137Z,15.47
2017-11-07T19:54:06.055Z,23.10
2017-11-07T19:56:34.920Z,25.73
2017-11-07T19:59:03.798Z,25.87
2017-11-07T20:01:32.680Z,23.07
2017-11-07T20:04:01.563Z,25.40
2017-11-07T20:06:30.420Z,24.83
2017-11-07T20:08:59.317Z,25.03
2017-11-07T20:11:28.185Z,26.90
2017-11-07T20:13:57.025Z,27.10
2017-11-07T20:16:25.897Z,27.20
2017-11-07T20:18:54.847Z,28.33
2017-11-07T20:21:23.696Z,23.67
2017-11-07T20:23:52.590Z,26.60
2017-11-07T20:26:21.436Z,24.43
2017-11-07T20:28:50.296Z,25.47
2017-11-07T20:31:19.200Z,27.73
2017-11-07T20:33:48.044Z,27.77
2017-11-07T20:36:16.943Z,35.70
2017-11-07T20:38:45.798Z,33.87
2017-11-07T20:41:15.354Z,28.10
2017-11-07T20:43:44.195Z,28.63
2017-11-07T20:46:13.080Z,27.33
2017-11-07T20:48:41.944Z,29.40
2017-11-07T20:51:11.483Z,30.53
2017-11-07T20:53:40.360Z,29.57
2017-11-07T20:56:09.221Z,30.50
2017-11-07T20:58:38.086Z,27.73
2017-11-07T21:01:06.962Z,27.20
2017-11-07T21:03:35.814Z,20.30
2017-11-07T21:06:04.679Z,26.90
2017-11-07T21:08:33.579Z,25.37
2017-11-07T21:11:04.474Z,25.17
2017-11-07T21:13:33.354Z,27.70
2017-11-07T21:16:02.210Z,27.10
2017-11-07T21:18:31.050Z,27.93
2017-11-07T21:20:59.952Z,22.30
2017-11-07T21:23:29.544Z,20.37
2017-11-07T21:25:58.396Z,23.03
2017-11-07T21:28:27.301Z,27.67
2017-11-07T21:30:56.150Z,20.13
2017-11-07T21:33:25.010Z,20.33
2017-11-07T21:35:53.964Z,25.60
2017-11-07T21:38:22.812Z,26.27
2017-11-07T21:40:51.667Z,27.30
2017-11-07T21:43:20.528Z,22.53
2017-11-07T21:45:49.484Z,28.30
2017-11-07T21:48:18.336Z,23.97
2017-11-07T21:50:47.223Z,23.03
2017-11-07T21:53:16.060Z,27.17
2017-11-07T21:55:44.914Z,23.23
2017-11-07T21:58:13.816Z,23.57
2017-11-07T22:00:42.712Z,21.37
2017-11-07T22:03:11.568Z,21.03
2017-11-07T22:05:41.078Z,28.80
2017-11-07T22:08:09.920Z,26.77
2017-11-07T22:10:38.806Z,24.13
2017-11-07T22:13:07.696Z,26.63
2017-11-07T22:15:37.254Z,26.50
2017-11-07T22:18:11.816Z,22.37
2017-11-07T22:20:40.672Z,25.53
2017-11-07T22:23:15.256Z,25.33
2017-11-07T22:25:44.107Z,25.87
2017-11-07T22:28:12.974Z,27.67
2017-11-07T22:30:41.844Z,27.33
2017-11-07T22:33:10.688Z,27.10
2017-11-07T22:35:39.528Z,26.70
2017-11-07T22:38:08.416Z,26.57
2017-11-07T22:40:37.252Z,27.67
2017-11-07T22:43:06.120Z,19.27
2017-11-07T22:45:35.073Z,22.87
2017-11-07T22:48:04.059Z,25.53
2017-11-07T22:50:33.208Z,20.00
2017-11-07T22:53:02.096Z,26.97
2017-11-07T22:55:31.806Z,27.70
2017-11-07T22:58:00.652Z,27.27
2017-11-07T23:00:29.526Z,28.47
2017-11-07T23:02:58.383Z,22.67
2017-11-07T23:05:27.229Z,21.63
2017-11-07T23:07:56.091Z,22.60
2017-11-07T23:10:24.960Z,27.17
2017-11-07T23:12:53.804Z,26.77
2017-11-07T23:15:22.734Z,27.20
2017-11-07T23:17:51.586Z,28.87
2017-11-07T23:20:21.005Z,26.63
2017-11-07T23:22:50.457Z,26.43
2017-11-07T23:25:19.307Z,27.97
2017-11-07T23:27:48.141Z,21.97
2017-11-07T23:30:17.014Z,28.20
2017-11-07T23:32:45.860Z,26.97
2017-11-07T23:35:14.785Z,25.10
2017-11-07T23:37:43.684Z,27.67
2017-11-07T23:40:12.577Z,26.93
2017-11-07T23:42:41.443Z,22.00
2017-11-07T23:45:10.306Z,22.13
2017-11-07T23:47:39.154Z,26.23
2017-11-07T23:50:08.963Z,26.33
2017-11-07T23:52:37.815Z,22.57
2017-11-07T23:55:06.694Z,24.20
2017-11-07T23:57:35.537Z,20.20
